sensor_id;sensor_type;location;lat;lon;timestamp;temperature;humidity
7600;DHT22;3841;49.442;11.126;2022-08-21T00:01:07;16.10;99.90
7600;DHT22;3841;49.442;11.126;2022-08-21T00:03:36;16.10;99.90
7600;DHT22;3841;49.442;11.126;2022-08-21T00:06:02;16.10;99.90
7600;DHT22;3841;49.442;11.126;2022-08-21T00:08:29;16.00;99.90
7600;DHT22;3841;49.442;11.126;2022-08-21T00:10:56;16.00;99.90
7600;DHT22;3841;49.442;11.126;2022-08-21T00:13:24;16.00;99.90
7600;DHT22;3841;49.442;11.126;2022-08-21T00:15:51;15.90;99.90
7600;DHT22;3841;49.442;11.126;2022-08-21T00:18:18;15.90;99.90
7600;DHT22;3841;49.442;11.126;2022-08-21T00:20:45;16.00;99.90
7600;DHT22;3841;49.442;11.126;2022-08-21T00:23:12;16.00;99.90
7600;DHT22;3841;49.442;11.126;2022-08-21T00:25:39;16.00;99.90
7600;DHT22;3841;49.442;11.126;2022-08-21T00:28:05;15.90;99.90
7600;DHT22;3841;49.442;11.126;2022-08-21T00:30:34;15.90;99.90
7600;DHT22;3841;49.442;11.126;2022-08-21T00:33:01;15.80;99.90
7600;DHT22;3841;49.442;11.126;2022-08-21T00:35:30;15.70;99.90
7600;DHT22;3841;49.442;11.126;2022-08-21T00:37:57;15.60;99.90
7600;DHT22;3841;49.442;11.126;2022-08-21T00:40:24;15.60;99.90
7600;DHT22;3841;49.442;11.126;2022-08-21T00:42:52;15.50;99.90
7600;DHT22;3841;49.442;11.126;2022-08-21T00:45:18;15.50;99.90
7600;DHT22;3841;49.442;11.126;2022-08-21T00:47:46;15.40;99.90
7600;DHT22;3841;49.442;11.126;2022-08-21T00:50:13;15.40;99.90
7600;DHT22;3841;49.442;11.126;2022-08-21T00:52:40;15.30;99.90
7600;DHT22;3841;49.442;11.126;2022-08-21T00:55:09;15.40;99.90
7600;DHT22;3841;49.442;11.126;2022-08-21T00:57:38;15.40;99.90
7600;DHT22;3841;49.442;11.126;2022-08-21T01:00:07;15.40;99.90
7600;DHT22;3841;49.442;11.126;2022-08-21T01:02:34;15.40;99.90
7600;DHT22;3841;49.442;11.126;2022-08-21T01:05:03;15.40;99.90
7600;DHT22;3841;49.442;11.126;2022-08-21T01:07:30;15.50;99.90
7600;DHT22;3841;49.442;11.126;2022-08-21T01:09:57;15.40;99.90
7600;DHT22;3841;49.442;11.126;2022-08-21T01:12:24;15.50;99.90
7600;DHT22;3841;49.442;11.126;2022-08-21T01:14:51;15.50;99.90
7600;DHT22;3841;49.442;11.126;2022-08-21T01:17:18;15.60;99.90
7600;DHT22;3841;49.442;11.126;2022-08-21T01:19:46;15.60;99.90
7600;DHT22;3841;49.442;11.126;2022-08-21T01:22:14;15.60;99.90
7600;DHT22;3841;49.442;11.126;2022-08-21T01:24:40;15.50;99.90
7600;DHT22;3841;49.442;11.126;2022-08-21T01:27:07;15.50;99.90
7600;DHT22;3841;49.442;11.126;2022-08-21T01:29:35;15.40;99.90
7600;DHT22;3841;49.442;11.126;2022-08-21T01:32:05;15.60;99.90
7600;DHT22;3841;49.442;11.126;2022-08-21T01:34:33;15.60;99.90
7600;DHT22;3841;49.442;11.126;2022-08-21T01:37:00;15.50;99.90
7600;DHT22;3841;49.442;11.126;2022-08-21T01:39:28;15.40;99.90
7600;DHT22;3841;49.442;11.126;2022-08-21T01:41:54;15.40;99.90
7600;DHT22;3841;49.442;11.126;2022-08-21T01:44:21;15.40;99.90
7600;DHT22;3841;49.442;11.126;2022-08-21T01:46:48;15.30;99.90
7600;DHT22;3841;49.442;11.126;2022-08-21T01:49:14;15.30;99.90
7600;DHT22;3841;49.442;11.126;2022-08-21T01:51:41;15.20;99.90
7600;DHT22;3841;49.442;11.126;2022-08-21T01:54:08;15.20;99.90
7600;DHT22;3841;49.442;11.126;2022-08-21T01:56:37;15.30;99.90
7600;DHT22;3841;49.442;11.126;2022-08-21T01:59:04;15.30;99.90
7600;DHT22;3841;49.442;11.126;2022-08-21T02:01:30;15.30;99.90
7600;DHT22;3841;49.442;11.126;2022-08-21T02:03:57;15.20;99.90
7600;DHT22;3841;49.442;11.126;2022-08-21T02:06:24;15.20;99.90
7600;DHT22;3841;49.442;11.126;2022-08-21T02:08:51;15.20;99.90
7600;DHT22;3841;49.442;11.126;2022-08-21T02:11:18;15.20;99.90
7600;DHT22;3841;49.442;11.126;2022-08-21T02:13:46;15.20;99.90
7600;DHT22;3841;49.442;11.126;2022-08-21T02:16:13;15.20;99.90
7600;DHT22;3841;49.442;11.126;2022-08-21T02:18:41;15.10;99.90
7600;DHT22;3841;49.442;11.126;2022-08-21T02:21:08;15.10;99.90
7600;DHT22;3841;49.442;11.126;2022-08-21T02:23:35;15.20;99.90
7600;DHT22;3841;49.442;11.126;2022-08-21T02:26:03;15.20;99.90
7600;DHT22;3841;49.442;11.126;2022-08-21T02:28:30;15.10;99.90
7600;DHT22;3841;49.442;11.126;2022-08-21T02:30:58;15.20;99.90
7600;DHT22;3841;49.442;11.126;2022-08-21T02:33:25;15.20;99.90
7600;DHT22;3841;49.442;11.126;2022-08-21T02:35:52;15.20;99.90
7600;DHT22;3841;49.442;11.126;2022-08-21T02:38:20;15.30;99.90
7600;DHT22;3841;49.442;11.126;2022-08-21T02:40:48;15.30;99.90
7600;DHT22;3841;49.442;11.126;2022-08-21T02:43:15;15.30;99.90
7600;DHT22;3841;49.442;11.126;2022-08-21T02:45:43;15.20;99.90
7600;DHT22;3841;49.442;11.126;2022-08-21T02:48:12;15.20;99.90
7600;DHT22;3841;49.442;11.126;2022-08-21T02:50:41;15.20;99.90
7600;DHT22;3841;49.442;11.126;2022-08-21T02:53:08;15.20;99.90
7600;DHT22;3841;49.442;11.126;2022-08-21T02:55:35;15.20;99.90
7600;DHT22;3841;49.442;11.126;2022-08-21T02:58:03;15.20;99.90
7600;DHT22;3841;49.442;11.126;2022-08-21T03:00:31;15.20;99.90
7600;DHT22;3841;49.442;11.126;2022-08-21T03:02:58;15.20;99.90
7600;DHT22;3841;49.442;11.126;2022-08-21T03:05:27;15.30;99.90
7600;DHT22;3841;49.442;11.126;2022-08-21T03:07:54;15.20;99.90
7600;DHT22;3841;49.442;11.126;2022-08-21T03:10:21;15.20;99.90
7600;DHT22;3841;49.442;11.126;2022-08-21T03:12:48;15.30;99.90
7600;DHT22;3841;49.442;11.126;2022-08-21T03:15:16;15.20;99.90
7600;DHT22;3841;49.442;11.126;2022-08-21T03:17:43;15.20;99.90
7600;DHT22;3841;49.442;11.126;2022-08-21T03:20:10;15.20;99.90
7600;DHT22;3841;49.442;11.126;2022-08-21T03:22:39;15.10;99.90
7600;DHT22;3841;49.442;11.126;2022-08-21T03:25:06;15.10;99.90
7600;DHT22;3841;49.442;11.126;2022-08-21T03:27:33;15.00;99.90
7600;DHT22;3841;49.442;11.126;2022-08-21T03:30:02;14.90;99.90
7600;DHT22;3841;49.442;11.126;2022-08-21T03:32:29;14.80;99.90
7600;DHT22;3841;49.442;11.126;2022-08-21T03:34:56;14.80;99.90
7600;DHT22;3841;49.442;11.126;2022-08-21T03:37:23;14.80;99.90
7600;DHT22;3841;49.442;11.126;2022-08-21T03:39:51;14.70;99.90
7600;DHT22;3841;49.442;11.126;2022-08-21T03:42:18;14.70;99.90
7600;DHT22;3841;49.442;11.126;2022-08-21T03:44:45;14.60;99.90
7600;DHT22;3841;49.442;11.126;2022-08-21T03:47:11;14.50;99.90
7600;DHT22;3841;49.442;11.126;2022-08-21T03:49:38;14.40;99.90
7600;DHT22;3841;49.442;11.126;2022-08-21T03:52:05;14.40;99.90
7600;DHT22;3841;49.442;11.126;2022-08-21T03:54:31;14.30;99.90
7600;DHT22;3841;49.442;11.126;2022-08-21T03:56:59;14.30;99.90
7600;DHT22;3841;49.442;11.126;2022-08-21T03:59:26;14.40;99.90
7600;DHT22;3841;49.442;11.126;2022-08-21T04:01:53;14.40;99.90
7600;DHT22;3841;49.442;11.126;2022-08-21T04:04:20;14.30;99.90
7600;DHT22;3841;49.442;11.126;2022-08-21T04:06:46;14.30;99.90
7600;DHT22;3841;49.442;11.126;2022-08-21T04:09:13;14.30;99.90
7600;DHT22;3841;49.442;11.126;2022-08-21T04:11:40;14.40;99.90
7600;DHT22;3841;49.442;11.126;2022-08-21T04:14:08;14.40;99.90
7600;DHT22;3841;49.442;11.126;2022-08-21T04:16:35;14.50;99.90
7600;DHT22;3841;49.442;11.126;2022-08-21T04:19:01;14.50;99.90
7600;DHT22;3841;49.442;11.126;2022-08-21T04:21:28;14.60;99.90
7600;DHT22;3841;49.442;11.126;2022-08-21T04:23:55;14.70;99.90
7600;DHT22;3841;49.442;11.126;2022-08-21T04:26:22;14.80;99.90
7600;DHT22;3841;49.442;11.126;2022-08-21T04:28:49;14.80;99.90
7600;DHT22;3841;49.442;11.126;2022-08-21T04:31:17;14.90;99.90
7600;DHT22;3841;49.442;11.126;2022-08-21T04:33:43;14.90;99.90
7600;DHT22;3841;49.442;11.126;2022-08-21T04:36:11;14.90;99.90
7600;DHT22;3841;49.442;11.126;2022-08-21T04:38:37;14.90;99.90
7600;DHT22;3841;49.442;11.126;2022-08-21T04:41:04;15.00;99.90
7600;DHT22;3841;49.442;11.126;2022-08-21T04:43:31;15.10;99.90
7600;DHT22;3841;49.442;11.126;2022-08-21T04:45:58;15.20;99.90
7600;DHT22;3841;49.442;11.126;2022-08-21T04:48:27;15.20;99.90
7600;DHT22;3841;49.442;11.126;2022-08-21T04:50:55;15.20;99.90
7600;DHT22;3841;49.442;11.126;2022-08-21T04:53:23;15.30;99.90
7600;DHT22;3841;49.442;11.126;2022-08-21T04:55:51;15.30;99.90
7600;DHT22;3841;49.442;11.126;2022-08-21T04:58:19;15.30;99.90
7600;DHT22;3841;49.442;11.126;2022-08-21T05:00:47;15.30;99.90
7600;DHT22;3841;49.442;11.126;2022-08-21T05:03:13;15.30;99.90
7600;DHT22;3841;49.442;11.126;2022-08-21T05:05:42;15.30;99.90
7600;DHT22;3841;49.442;11.126;2022-08-21T05:08:09;15.30;99.90
7600;DHT22;3841;49.442;11.126;2022-08-21T05:10:38;15.30;99.90
7600;DHT22;3841;49.442;11.126;2022-08-21T05:13:05;15.40;99.90
7600;DHT22;3841;49.442;11.126;2022-08-21T05:15:32;15.40;99.90
7600;DHT22;3841;49.442;11.126;2022-08-21T05:17:59;15.40;99.90
7600;DHT22;3841;49.442;11.126;2022-08-21T05:20:26;15.40;99.90
7600;DHT22;3841;49.442;11.126;2022-08-21T05:22:54;15.40;99.90
7600;DHT22;3841;49.442;11.126;2022-08-21T05:25:21;15.50;99.90
7600;DHT22;3841;49.442;11.126;2022-08-21T05:27:47;15.60;99.90
7600;DHT22;3841;49.442;11.126;2022-08-21T05:30:14;15.70;99.90
7600;DHT22;3841;49.442;11.126;2022-08-21T05:32:41;15.80;99.90
7600;DHT22;3841;49.442;11.126;2022-08-21T05:35:07;15.80;99.90
7600;DHT22;3841;49.442;11.126;2022-08-21T05:37:34;15.90;99.90
7600;DHT22;3841;49.442;11.126;2022-08-21T05:40:02;15.80;99.90
7600;DHT22;3841;49.442;11.126;2022-08-21T05:42:29;16.00;99.90
7600;DHT22;3841;49.442;11.126;2022-08-21T05:44:56;16.10;99.90
7600;DHT22;3841;49.442;11.126;2022-08-21T05:47:23;16.10;99.90
7600;DHT22;3841;49.442;11.126;2022-08-21T05:49:50;16.20;99.90
7600;DHT22;3841;49.442;11.126;2022-08-21T05:52:18;16.30;99.90
7600;DHT22;3841;49.442;11.126;2022-08-21T05:54:45;16.40;99.90
7600;DHT22;3841;49.442;11.126;2022-08-21T05:57:13;16.50;99.90
7600;DHT22;3841;49.442;11.126;2022-08-21T05:59:40;16.60;99.90
7600;DHT22;3841;49.442;11.126;2022-08-21T06:02:07;16.60;99.90
7600;DHT22;3841;49.442;11.126;2022-08-21T06:04:34;16.60;99.90
7600;DHT22;3841;49.442;11.126;2022-08-21T06:07:01;16.60;99.90
7600;DHT22;3841;49.442;11.126;2022-08-21T06:09:28;16.60;99.90
7600;DHT22;3841;49.442;11.126;2022-08-21T06:11:54;16.70;99.90
7600;DHT22;3841;49.442;11.126;2022-08-21T06:14:22;16.70;99.90
7600;DHT22;3841;49.442;11.126;2022-08-21T06:16:49;16.80;99.90
7600;DHT22;3841;49.442;11.126;2022-08-21T06:19:16;16.90;99.90
7600;DHT22;3841;49.442;11.126;2022-08-21T06:21:42;17.00;99.90
7600;DHT22;3841;49.442;11.126;2022-08-21T06:24:09;17.00;99.90
7600;DHT22;3841;49.442;11.126;2022-08-21T06:26:36;17.00;99.90
7600;DHT22;3841;49.442;11.126;2022-08-21T06:29:03;17.00;99.90
7600;DHT22;3841;49.442;11.126;2022-08-21T06:31:31;17.10;99.90
7600;DHT22;3841;49.442;11.126;2022-08-21T06:33:58;17.10;99.90
7600;DHT22;3841;49.442;11.126;2022-08-21T06:36:24;17.20;99.90
7600;DHT22;3841;49.442;11.126;2022-08-21T06:38:51;17.20;99.90
7600;DHT22;3841;49.442;11.126;2022-08-21T06:41:18;17.20;99.90
7600;DHT22;3841;49.442;11.126;2022-08-21T06:43:45;17.20;99.90
7600;DHT22;3841;49.442;11.126;2022-08-21T06:46:12;17.00;99.90
7600;DHT22;3841;49.442;11.126;2022-08-21T06:48:40;16.90;99.90
7600;DHT22;3841;49.442;11.126;2022-08-21T06:51:06;16.90;99.90
7600;DHT22;3841;49.442;11.126;2022-08-21T06:53:33;16.90;99.90
7600;DHT22;3841;49.442;11.126;2022-08-21T06:56:00;16.80;99.90
7600;DHT22;3841;49.442;11.126;2022-08-21T06:58:26;16.80;99.90
7600;DHT22;3841;49.442;11.126;2022-08-21T07:00:54;16.90;99.90
7600;DHT22;3841;49.442;11.126;2022-08-21T07:03:21;17.00;99.90
7600;DHT22;3841;49.442;11.126;2022-08-21T07:05:50;17.10;99.90
7600;DHT22;3841;49.442;11.126;2022-08-21T07:08:17;17.20;99.90
7600;DHT22;3841;49.442;11.126;2022-08-21T07:10:43;17.20;99.90
7600;DHT22;3841;49.442;11.126;2022-08-21T07:13:10;17.40;99.90
7600;DHT22;3841;49.442;11.126;2022-08-21T07:15:37;17.50;99.90
7600;DHT22;3841;49.442;11.126;2022-08-21T07:18:04;17.50;99.90
7600;DHT22;3841;49.442;11.126;2022-08-21T07:20:31;17.50;99.90
7600;DHT22;3841;49.442;11.126;2022-08-21T07:23:01;17.50;99.90
7600;DHT22;3841;49.442;11.126;2022-08-21T07:25:28;17.40;99.90
7600;DHT22;3841;49.442;11.126;2022-08-21T07:27:54;17.40;99.90
7600;DHT22;3841;49.442;11.126;2022-08-21T07:30:21;17.50;99.90
7600;DHT22;3841;49.442;11.126;2022-08-21T07:32:49;17.50;99.90
7600;DHT22;3841;49.442;11.126;2022-08-21T07:35:16;17.50;99.90
7600;DHT22;3841;49.442;11.126;2022-08-21T07:37:43;17.40;99.90
7600;DHT22;3841;49.442;11.126;2022-08-21T07:40:11;17.40;99.90
7600;DHT22;3841;49.442;11.126;2022-08-21T07:42:39;17.30;99.90
7600;DHT22;3841;49.442;11.126;2022-08-21T07:45:06;17.30;99.90
7600;DHT22;3841;49.442;11.126;2022-08-21T07:47:33;17.40;99.90
7600;DHT22;3841;49.442;11.126;2022-08-21T07:50:00;17.40;99.90
7600;DHT22;3841;49.442;11.126;2022-08-21T07:52:27;17.50;99.90
7600;DHT22;3841;49.442;11.126;2022-08-21T07:54:53;17.70;99.90
7600;DHT22;3841;49.442;11.126;2022-08-21T07:57:21;17.80;99.90
7600;DHT22;3841;49.442;11.126;2022-08-21T07:59:48;17.80;99.90
7600;DHT22;3841;49.442;11.126;2022-08-21T08:02:21;17.90;99.90
7600;DHT22;3841;49.442;11.126;2022-08-21T08:04:47;18.00;99.90
7600;DHT22;3841;49.442;11.126;2022-08-21T08:07:14;18.20;99.90
7600;DHT22;3841;49.442;11.126;2022-08-21T08:09:41;18.20;99.90
7600;DHT22;3841;49.442;11.126;2022-08-21T08:12:08;18.20;99.90
7600;DHT22;3841;49.442;11.126;2022-08-21T08:14:36;18.00;99.90
7600;DHT22;3841;49.442;11.126;2022-08-21T08:17:03;18.00;99.90
7600;DHT22;3841;49.442;11.126;2022-08-21T08:19:30;18.00;99.90
7600;DHT22;3841;49.442;11.126;2022-08-21T08:21:56;18.00;99.90
7600;DHT22;3841;49.442;11.126;2022-08-21T08:24:23;18.10;99.90
7600;DHT22;3841;49.442;11.126;2022-08-21T08:26:50;18.00;99.90
7600;DHT22;3841;49.442;11.126;2022-08-21T08:29:16;18.00;99.90
7600;DHT22;3841;49.442;11.126;2022-08-21T08:31:44;18.00;99.90
7600;DHT22;3841;49.442;11.126;2022-08-21T08:34:11;18.10;99.90
7600;DHT22;3841;49.442;11.126;2022-08-21T08:36:38;18.30;99.90
7600;DHT22;3841;49.442;11.126;2022-08-21T08:39:05;18.40;99.90
7600;DHT22;3841;49.442;11.126;2022-08-21T08:41:32;18.60;99.90
7600;DHT22;3841;49.442;11.126;2022-08-21T08:43:59;18.70;99.90
7600;DHT22;3841;49.442;11.126;2022-08-21T08:46:29;18.70;99.90
7600;DHT22;3841;49.442;11.126;2022-08-21T08:49:00;18.80;99.90
7600;DHT22;3841;49.442;11.126;2022-08-21T08:51:31;18.90;99.90
7600;DHT22;3841;49.442;11.126;2022-08-21T08:54:01;19.10;99.90
7600;DHT22;3841;49.442;11.126;2022-08-21T08:56:30;19.20;99.90
7600;DHT22;3841;49.442;11.126;2022-08-21T08:58:59;19.50;99.90
7600;DHT22;3841;49.442;11.126;2022-08-21T09:01:26;19.70;99.90
7600;DHT22;3841;49.442;11.126;2022-08-21T09:03:53;19.90;99.90
7600;DHT22;3841;49.442;11.126;2022-08-21T09:06:28;20.20;99.90
7600;DHT22;3841;49.442;11.126;2022-08-21T09:08:59;20.30;99.90
7600;DHT22;3841;49.442;11.126;2022-08-21T09:11:29;20.50;99.90
7600;DHT22;3841;49.442;11.126;2022-08-21T09:13:58;20.60;99.90
7600;DHT22;3841;49.442;11.126;2022-08-21T09:16:29;20.50;99.90
7600;DHT22;3841;49.442;11.126;2022-08-21T09:19:00;20.40;99.90
7600;DHT22;3841;49.442;11.126;2022-08-21T09:21:34;20.50;99.90
7600;DHT22;3841;49.442;11.126;2022-08-21T09:24:06;20.60;99.90
7600;DHT22;3841;49.442;11.126;2022-08-21T09:26:40;20.70;99.90
7600;DHT22;3841;49.442;11.126;2022-08-21T09:29:09;20.60;99.90
7600;DHT22;3841;49.442;11.126;2022-08-21T09:31:37;20.50;99.90
7600;DHT22;3841;49.442;11.126;2022-08-21T09:34:05;20.60;99.90
7600;DHT22;3841;49.442;11.126;2022-08-21T09:36:36;20.60;99.90
7600;DHT22;3841;49.442;11.126;2022-08-21T09:39:03;20.60;99.90
7600;DHT22;3841;49.442;11.126;2022-08-21T09:41:31;20.50;99.90
7600;DHT22;3841;49.442;11.126;2022-08-21T09:43:59;20.50;99.90
7600;DHT22;3841;49.442;11.126;2022-08-21T09:46:26;20.60;99.90
7600;DHT22;3841;49.442;11.126;2022-08-21T09:48:53;20.80;99.90
7600;DHT22;3841;49.442;11.126;2022-08-21T09:51:21;20.90;99.90
7600;DHT22;3841;49.442;11.126;2022-08-21T09:53:50;21.20;99.90
7600;DHT22;3841;49.442;11.126;2022-08-21T09:56:25;21.60;99.90
7600;DHT22;3841;49.442;11.126;2022-08-21T09:59:14;21.80;99.90
7600;DHT22;3841;49.442;11.126;2022-08-21T10:01:44;22.10;99.90
7600;DHT22;3841;49.442;11.126;2022-08-21T10:04:12;22.30;99.90
7600;DHT22;3841;49.442;11.126;2022-08-21T10:06:38;22.10;99.90
7600;DHT22;3841;49.442;11.126;2022-08-21T10:09:08;21.80;99.90
7600;DHT22;3841;49.442;11.126;2022-08-21T10:11:35;21.40;99.90
7600;DHT22;3841;49.442;11.126;2022-08-21T10:14:05;21.00;99.90
7600;DHT22;3841;49.442;11.126;2022-08-21T10:16:37;20.80;99.90
7600;DHT22;3841;49.442;11.126;2022-08-21T10:19:16;20.80;99.90
7600;DHT22;3841;49.442;11.126;2022-08-21T10:21:54;20.90;99.90
7600;DHT22;3841;49.442;11.126;2022-08-21T10:24:24;21.00;99.90
7600;DHT22;3841;49.442;11.126;2022-08-21T10:26:56;21.20;99.90
7600;DHT22;3841;49.442;11.126;2022-08-21T10:29:28;21.30;99.90
7600;DHT22;3841;49.442;11.126;2022-08-21T10:32:01;21.30;99.90
7600;DHT22;3841;49.442;11.126;2022-08-21T10:34:31;21.40;99.90
7600;DHT22;3841;49.442;11.126;2022-08-21T10:37:03;21.40;99.90
7600;DHT22;3841;49.442;11.126;2022-08-21T10:39:35;21.30;99.90
7600;DHT22;3841;49.442;11.126;2022-08-21T10:42:10;21.30;99.90
7600;DHT22;3841;49.442;11.126;2022-08-21T10:44:52;21.20;99.90
7600;DHT22;3841;49.442;11.126;2022-08-21T10:47:22;21.30;99.90
7600;DHT22;3841;49.442;11.126;2022-08-21T10:49:53;21.20;99.90
7600;DHT22;3841;49.442;11.126;2022-08-21T10:52:26;21.20;99.90
7600;DHT22;3841;49.442;11.126;2022-08-21T10:54:59;21.30;99.90
7600;DHT22;3841;49.442;11.126;2022-08-21T10:57:27;21.40;99.90
7600;DHT22;3841;49.442;11.126;2022-08-21T10:59:57;21.50;99.90
7600;DHT22;3841;49.442;11.126;2022-08-21T11:02:26;21.40;99.90
7600;DHT22;3841;49.442;11.126;2022-08-21T11:04:55;21.60;99.90
7600;DHT22;3841;49.442;11.126;2022-08-21T11:07:26;21.60;99.90
7600;DHT22;3841;49.442;11.126;2022-08-21T11:09:55;21.60;99.90
7600;DHT22;3841;49.442;11.126;2022-08-21T11:12:26;21.70;99.90
7600;DHT22;3841;49.442;11.126;2022-08-21T11:14:55;21.70;99.90
7600;DHT22;3841;49.442;11.126;2022-08-21T11:17:24;21.70;99.90
7600;DHT22;3841;49.442;11.126;2022-08-21T11:19:57;21.80;99.90
7600;DHT22;3841;49.442;11.126;2022-08-21T11:22:26;22.00;99.90
7600;DHT22;3841;49.442;11.126;2022-08-21T11:24:56;21.90;99.90
7600;DHT22;3841;49.442;11.126;2022-08-21T11:27:26;21.90;99.90
7600;DHT22;3841;49.442;11.126;2022-08-21T11:29:55;21.90;99.90
7600;DHT22;3841;49.442;11.126;2022-08-21T11:35:09;22.20;99.90
7600;DHT22;3841;49.442;11.126;2022-08-21T11:37:52;22.40;99.90
7600;DHT22;3841;49.442;11.126;2022-08-21T11:40:26;22.60;99.90
7600;DHT22;3841;49.442;11.126;2022-08-21T11:43:00;22.50;99.90
7600;DHT22;3841;49.442;11.126;2022-08-21T11:45:30;22.40;99.90
7600;DHT22;3841;49.442;11.126;2022-08-21T11:48:02;22.60;99.90
7600;DHT22;3841;49.442;11.126;2022-08-21T11:50:32;22.60;99.90
7600;DHT22;3841;49.442;11.126;2022-08-21T11:53:02;22.80;99.90
7600;DHT22;3841;49.442;11.126;2022-08-21T11:55:31;22.90;99.90
7600;DHT22;3841;49.442;11.126;2022-08-21T11:58:02;23.10;99.90
7600;DHT22;3841;49.442;11.126;2022-08-21T12:00:30;23.20;99.90
7600;DHT22;3841;49.442;11.126;2022-08-21T12:03:06;23.30;99.90
7600;DHT22;3841;49.442;11.126;2022-08-21T12:05:36;23.10;99.90
7600;DHT22;3841;49.442;11.126;2022-08-21T12:08:09;22.80;99.90
7600;DHT22;3841;49.442;11.126;2022-08-21T12:10:38;23.00;99.90
7600;DHT22;3841;49.442;11.126;2022-08-21T12:13:06;23.30;99.90
7600;DHT22;3841;49.442;11.126;2022-08-21T12:15:34;23.50;99.90
7600;DHT22;3841;49.442;11.126;2022-08-21T12:18:02;23.70;99.90
7600;DHT22;3841;49.442;11.126;2022-08-21T12:20:40;23.70;99.90
7600;DHT22;3841;49.442;11.126;2022-08-21T12:23:29;23.60;99.90
7600;DHT22;3841;49.442;11.126;2022-08-21T12:26:00;23.50;99.90
7600;DHT22;3841;49.442;11.126;2022-08-21T12:28:28;23.40;99.90
7600;DHT22;3841;49.442;11.126;2022-08-21T12:30:56;23.30;99.90
7600;DHT22;3841;49.442;11.126;2022-08-21T12:33:24;23.30;99.90
7600;DHT22;3841;49.442;11.126;2022-08-21T12:35:52;23.20;99.90
7600;DHT22;3841;49.442;11.126;2022-08-21T12:38:20;23.30;99.90
7600;DHT22;3841;49.442;11.126;2022-08-21T12:40:50;23.40;99.90
7600;DHT22;3841;49.442;11.126;2022-08-21T12:43:19;23.40;99.90
7600;DHT22;3841;49.442;11.126;2022-08-21T12:45:47;23.60;99.90
7600;DHT22;3841;49.442;11.126;2022-08-21T12:48:15;23.70;99.90
7600;DHT22;3841;49.442;11.126;2022-08-21T12:50:45;23.70;99.90
7600;DHT22;3841;49.442;11.126;2022-08-21T12:53:15;23.70;99.90
7600;DHT22;3841;49.442;11.126;2022-08-21T12:55:47;23.50;99.90
7600;DHT22;3841;49.442;11.126;2022-08-21T12:58:19;23.30;99.90
7600;DHT22;3841;49.442;11.126;2022-08-21T13:00:49;23.10;99.90
7600;DHT22;3841;49.442;11.126;2022-08-21T13:03:16;23.10;99.90
7600;DHT22;3841;49.442;11.126;2022-08-21T13:05:43;23.20;99.90
7600;DHT22;3841;49.442;11.126;2022-08-21T13:08:10;23.20;99.90
7600;DHT22;3841;49.442;11.126;2022-08-21T13:10:39;23.30;99.90
7600;DHT22;3841;49.442;11.126;2022-08-21T13:13:06;23.20;99.90
7600;DHT22;3841;49.442;11.126;2022-08-21T13:15:36;23.30;99.90
7600;DHT22;3841;49.442;11.126;2022-08-21T13:18:04;23.50;99.90
7600;DHT22;3841;49.442;11.126;2022-08-21T13:20:32;23.50;99.90
7600;DHT22;3841;49.442;11.126;2022-08-21T13:22:59;23.50;99.90
7600;DHT22;3841;49.442;11.126;2022-08-21T13:25:27;23.70;99.90
7600;DHT22;3841;49.442;11.126;2022-08-21T13:27:58;24.10;99.90
7600;DHT22;3841;49.442;11.126;2022-08-21T13:30:25;24.40;99.90
7600;DHT22;3841;49.442;11.126;2022-08-21T13:32:55;24.60;99.90
7600;DHT22;3841;49.442;11.126;2022-08-21T13:35:27;24.70;99.90
7600;DHT22;3841;49.442;11.126;2022-08-21T13:37:54;24.70;99.90
7600;DHT22;3841;49.442;11.126;2022-08-21T13:40:24;24.60;99.90
7600;DHT22;3841;49.442;11.126;2022-08-21T13:42:51;24.70;99.90
7600;DHT22;3841;49.442;11.126;2022-08-21T13:45:21;24.90;99.90
7600;DHT22;3841;49.442;11.126;2022-08-21T13:47:48;25.20;99.90
7600;DHT22;3841;49.442;11.126;2022-08-21T13:50:16;25.50;99.90
7600;DHT22;3841;49.442;11.126;2022-08-21T13:52:54;25.50;99.90
7600;DHT22;3841;49.442;11.126;2022-08-21T13:55:20;25.60;99.90
7600;DHT22;3841;49.442;11.126;2022-08-21T13:57:47;25.50;99.90
7600;DHT22;3841;49.442;11.126;2022-08-21T14:00:25;25.30;99.90
7600;DHT22;3841;49.442;11.126;2022-08-21T14:02:52;25.20;99.90
7600;DHT22;3841;49.442;11.126;2022-08-21T14:05:21;24.90;99.90
7600;DHT22;3841;49.442;11.126;2022-08-21T14:07:49;24.90;99.90
7600;DHT22;3841;49.442;11.126;2022-08-21T14:10:18;24.80;99.90
7600;DHT22;3841;49.442;11.126;2022-08-21T14:12:46;24.90;99.90
7600;DHT22;3841;49.442;11.126;2022-08-21T14:15:14;24.90;99.90
7600;DHT22;3841;49.442;11.126;2022-08-21T14:17:42;24.90;99.90
7600;DHT22;3841;49.442;11.126;2022-08-21T14:20:10;24.90;99.90
7600;DHT22;3841;49.442;11.126;2022-08-21T14:22:39;24.90;99.90
7600;DHT22;3841;49.442;11.126;2022-08-21T14:25:08;25.00;99.90
7600;DHT22;3841;49.442;11.126;2022-08-21T14:27:36;24.90;99.90
7600;DHT22;3841;49.442;11.126;2022-08-21T14:30:09;24.60;99.90
7600;DHT22;3841;49.442;11.126;2022-08-21T14:32:37;24.40;99.90
7600;DHT22;3841;49.442;11.126;2022-08-21T14:35:04;24.40;99.90
7600;DHT22;3841;49.442;11.126;2022-08-21T14:37:31;24.40;99.90
7600;DHT22;3841;49.442;11.126;2022-08-21T14:39:59;24.40;99.90
7600;DHT22;3841;49.442;11.126;2022-08-21T14:42:26;24.50;99.90
7600;DHT22;3841;49.442;11.126;2022-08-21T14:44:55;24.50;99.90
7600;DHT22;3841;49.442;11.126;2022-08-21T14:47:23;24.50;99.90
7600;DHT22;3841;49.442;11.126;2022-08-21T14:49:50;24.40;99.90
7600;DHT22;3841;49.442;11.126;2022-08-21T14:52:19;24.30;99.90
7600;DHT22;3841;49.442;11.126;2022-08-21T14:54:45;24.30;99.90
7600;DHT22;3841;49.442;11.126;2022-08-21T14:57:13;24.20;99.90
7600;DHT22;3841;49.442;11.126;2022-08-21T14:59:40;24.30;99.90
7600;DHT22;3841;49.442;11.126;2022-08-21T15:02:08;24.40;99.90
7600;DHT22;3841;49.442;11.126;2022-08-21T15:04:35;24.40;99.90
7600;DHT22;3841;49.442;11.126;2022-08-21T15:07:02;24.30;99.90
7600;DHT22;3841;49.442;11.126;2022-08-21T15:09:29;24.40;99.90
7600;DHT22;3841;49.442;11.126;2022-08-21T15:11:57;24.50;99.90
7600;DHT22;3841;49.442;11.126;2022-08-21T15:14:26;24.40;99.90
7600;DHT22;3841;49.442;11.126;2022-08-21T15:16:53;24.40;99.80
7600;DHT22;3841;49.442;11.126;2022-08-21T15:19:19;24.40;99.20
7600;DHT22;3841;49.442;11.126;2022-08-21T15:21:46;24.40;98.70
7600;DHT22;3841;49.442;11.126;2022-08-21T15:24:13;24.40;99.10
7600;DHT22;3841;49.442;11.126;2022-08-21T15:26:39;24.40;95.70
7600;DHT22;3841;49.442;11.126;2022-08-21T15:29:06;24.40;96.50
7600;DHT22;3841;49.442;11.126;2022-08-21T15:31:35;24.40;96.70
7600;DHT22;3841;49.442;11.126;2022-08-21T15:34:02;24.20;98.00
7600;DHT22;3841;49.442;11.126;2022-08-21T15:36:28;24.30;97.10
7600;DHT22;3841;49.442;11.126;2022-08-21T15:38:55;24.20;97.10
7600;DHT22;3841;49.442;11.126;2022-08-21T15:41:22;24.20;98.70
7600;DHT22;3841;49.442;11.126;2022-08-21T15:43:49;24.20;97.80
7600;DHT22;3841;49.442;11.126;2022-08-21T15:46:16;24.20;98.80
7600;DHT22;3841;49.442;11.126;2022-08-21T15:48:45;24.30;98.10
7600;DHT22;3841;49.442;11.126;2022-08-21T15:51:13;24.20;97.40
7600;DHT22;3841;49.442;11.126;2022-08-21T15:53:40;24.20;98.10